Flight Track Log - Related Links

Times and Time Zones

All times are in EDT time to prevent confusion due to time zone crossing. See the N354LQ flight status page for this flight to view local times or setup timezone preferences in your user account.

Time Position Orientation Groundspeed Altitude Reporting Facility
EDT Latitude Longitude Course Direction KTS MPH feet Rate Location/Type
Tue 05:07:35 PM 32.9500 -96.8333 90° East 191 220 1,200  Level Dallas / Fort Worth TRACON
Tue 05:08:29 PM 32.9500 -96.7667 90° East 229 264 2,500 1,708 Climbing Dallas / Fort Worth TRACON
Tue 05:09:45 PM 32.9692 -96.6728 76° East 268 308 4,900 1,043 Climbing Fort Worth Center
Tue 05:10:47 PM 32.9728 -96.5736 87° East 284 327 4,900 48 Level Fort Worth Center
Tue 05:11:49 PM 32.9672 -96.4731 94° East 289 333 5,000 48 Climbing Fort Worth Center
Tue 05:12:51 PM 32.9694 -96.3869 88° East 265 305 5,000  Level Fort Worth Center
Tue 05:13:54 PM 32.9778 -96.3036 83° East 242 278 5,000  Level Fort Worth Center
Tue 05:14:56 PM 33.0083 -96.2314 63° Northeast 246 283 5,000  Level Fort Worth Center
Tue 05:15:58 PM 33.0461 -96.1356 65° Northeast 297 342 5,000 -48 Level Fort Worth Center
Tue 05:17:00 PM 33.0486 -96.0553 88° East 254 292 4,900  Descending Fort Worth Center
Tue 05:18:02 PM 33.0961 -96.0147 36° Northeast 247 284 5,000 48 Climbing Fort Worth Center
Tue 05:19:04 PM 33.1511 -96.0719 319° Northwest 262 302 5,000  Level Fort Worth Center
Tue 05:20:06 PM 33.1969 -96.1383 310° West 273 314 5,000  Level Fort Worth Center
Tue 05:21:09 PM 33.2100 -96.2278 280° West 271 312 5,000  Level Fort Worth Center
Tue 05:22:11 PM 33.1781 -96.3064 244° Southwest 265 305 5,000 -387 Level Fort Worth Center
Tue 05:23:13 PM 33.1428 -96.3892 243° Southwest 263 303 4,200 -774 Descending Fort Worth Center
Tue 05:24:15 PM 33.1164 -96.4692 249° West 261 300 3,400 -581 Descending Fort Worth Center
Tue 05:25:17 PM 33.0947 -96.5572 254° West 259 298 3,000 -194 Descending Fort Worth Center
Tue 05:26:19 PM 33.0775 -96.6322 255° West 224 258 3,000  Level Fort Worth Center
Tue 05:27:22 PM 33.0578 -96.7017 251° West 223 257 3,000  Level Fort Worth Center
Tue 05:28:24 PM 33.0544 -96.7725 267° West 199 229 3,000 -435 Level Fort Worth Center
Tue 05:29:26 PM 33.0344 -96.8322 248° West 197 227 2,100 -919 Descending Fort Worth Center
Tue 05:30:28 PM 32.9908 -96.8464 195° South 154 177 1,100 -629 Descending Fort Worth Center
Tue 05:31:30 PM 32.9542 -96.8297 159° South 144 166 800 -290 Descending Fort Worth Center
Tue 05:33:00 PM 32.9654 -96.7132 83° East  Level FlightAware Approximate
Tue 05:40:00 PM 33.0122 -96.1802 68° East  Level FlightAware Approximate

Login

Don't have an account? Register now (free) for customized features, flight alerts, and more!